EKRK/RKE METAR and TAF weather

Enter ICAO airport designator
Station Type Date Time Source
EKRK METAR 2021/09/25 12:50 UTC NOAA

EKRK 251250Z AUTO 29012KT 9999 BKN031/// 18/10 Q1013


Station Type Date Time Source
EKRK Decoded METAR 2021/09/25 12:50 UTC NOAA

Koebenhavn / Roskilde, Denmark (EKRK) 55-35N 012-08E 44M
Sep 25, 2021 - 08:50 AM EDT / 2021.09.25 1250 UTC
Wind: from the WNW (290 degrees) at 14 MPH (12 KT):0
Visibility: greater than 7 mile(s):0
Sky conditions: mostly cloudy
Temperature: 64 F (18 C)
Dew Point: 50 F (10 C)
Relative Humidity: 59%
Pressure (altimeter): 29.91 in. Hg (1013 hPa)
ob: EKRK 251250Z AUTO 29012KT 9999 BKN031/// 18/10 Q1013
cycle: 13

Station Type Date Time Source
EKRK TAF 2020/10/13 06:33 UTC NOAA

TAF EKRK 130526Z 1306/1415 09004KT 0200 FG VV001
TEMPO 1306/1307 6000 NSW NSC
BECMG 1307/1309 9999 NSW FEW020

Example: see airport list